createdAt,value
2016-10-15T00:00:39.170Z,0
2016-10-15T00:01:38.892Z,0
2016-10-15T00:02:38.889Z,0
2016-10-15T00:03:39.257Z,0
2016-10-15T00:04:39.573Z,0
2016-10-15T00:05:39.607Z,0
2016-10-15T00:06:39.304Z,0
2016-10-15T00:07:39.640Z,0
2016-10-15T00:08:39.034Z,0
2016-10-15T00:09:39.057Z,0
2016-10-15T00:10:39.089Z,0
2016-10-15T00:11:39.730Z,0
2016-10-15T00:12:39.145Z,0
2016-10-15T00:13:39.157Z,0
2016-10-15T00:14:39.535Z,0
2016-10-15T00:15:39.509Z,0
2016-10-15T00:16:39.855Z,0
2016-10-15T00:17:39.555Z,0
2016-10-15T00:18:39.578Z,0
2016-10-15T00:19:39.919Z,0
2016-10-15T00:20:39.947Z,0
2016-10-15T00:21:39.997Z,0
2016-10-15T00:22:39.991Z,0
2016-10-15T00:23:40.011Z,0
2016-10-15T00:24:39.725Z,0
2016-10-15T00:25:39.739Z,0
2016-10-15T00:26:39.780Z,0
2016-10-15T00:27:40.115Z,0
2016-10-15T00:28:40.131Z,0
2016-10-15T00:29:39.832Z,0
2016-10-15T00:30:39.852Z,0
2016-10-15T00:31:39.908Z,0
2016-10-15T00:32:40.217Z,0
2016-10-15T00:33:39.608Z,0
2016-10-15T00:34:39.633Z,0
2016-10-15T00:35:39.969Z,0
2016-10-15T00:36:39.692Z,0
2016-10-15T00:37:40.014Z,0
2016-10-15T00:38:39.727Z,0
2016-10-15T00:39:40.064Z,0
2016-10-15T00:40:40.096Z,0
2016-10-15T00:41:39.795Z,0
2016-10-15T00:42:40.133Z,0
2016-10-15T00:43:40.786Z,0
2016-10-15T00:44:40.547Z,0
2016-10-15T00:45:40.202Z,0
2016-10-15T00:46:40.218Z,0
2016-10-15T00:47:39.944Z,0
2016-10-15T00:48:40.268Z,0
2016-10-15T00:49:40.614Z,0
2016-10-15T00:50:40.638Z,0
2016-10-15T00:51:40.657Z,0
2016-10-15T00:52:40.705Z,0
2016-10-15T00:53:40.699Z,0
2016-10-15T00:54:40.721Z,0
2016-10-15T00:55:40.753Z,0
2016-10-15T00:56:40.458Z,0
2016-10-15T00:57:40.162Z,0
2016-10-15T00:58:40.820Z,0
2016-10-15T00:59:40.630Z,0
2016-10-15T01:00:40.545Z,0
2016-10-15T01:01:40.575Z,0
2016-10-15T01:02:40.613Z,0
2016-10-15T01:03:40.929Z,0
2016-10-15T01:04:40.963Z,0
2016-10-15T01:05:40.976Z,0
2016-10-15T01:06:40.996Z,0
2016-10-15T01:07:41.030Z,0
2016-10-15T01:08:40.413Z,0
2016-10-15T01:09:40.437Z,0
2016-10-15T01:10:40.775Z,0
2016-10-15T01:11:40.478Z,0
2016-10-15T01:12:41.135Z,0
2016-10-15T01:13:40.846Z,0
2016-10-15T01:14:41.189Z,0
2016-10-15T01:15:41.204Z,0
2016-10-15T01:16:40.920Z,0
2016-10-15T01:17:40.633Z,0
2016-10-15T01:18:41.068Z,0
2016-10-15T01:19:40.981Z,0
2016-10-15T01:20:40.689Z,0
2016-10-15T01:21:41.050Z,0
2016-10-15T01:22:41.369Z,0
2016-10-15T01:23:41.414Z,0
2016-10-15T01:24:40.792Z,0
2016-10-15T01:25:40.804Z,0
2016-10-15T01:26:40.826Z,0
2016-10-15T01:27:41.171Z,0
2016-10-15T01:28:41.500Z,0
2016-10-15T01:29:41.529Z,0
2016-10-15T01:30:41.231Z,0
2016-10-15T01:31:40.937Z,0
2016-10-15T01:32:41.278Z,0
2016-10-15T01:33:41.324Z,0
2016-10-15T01:34:41.342Z,0
2016-10-15T01:35:41.342Z,0
2016-10-15T01:36:41.686Z,0
2016-10-15T01:37:41.384Z,0
2016-10-15T01:38:41.741Z,0
2016-10-15T01:39:41.754Z,0
2016-10-15T01:40:41.457Z,0
2016-10-15T01:41:41.489Z,0
2016-10-15T01:42:41.838Z,0
2016-10-15T01:43:41.877Z,0
2016-10-15T01:44:41.551Z,0
2016-10-15T01:45:41.894Z,0
2016-10-15T01:46:41.596Z,0
2016-10-15T01:47:41.933Z,0
2016-10-15T01:48:41.955Z,0
2016-10-15T01:49:41.664Z,0
2016-10-15T01:50:41.689Z,0
2016-10-15T01:51:42.023Z,0
2016-10-15T01:52:41.761Z,0
2016-10-15T01:53:41.756Z,0
2016-10-15T01:54:42.207Z,0
2016-10-15T01:55:42.437Z,0
2016-10-15T01:56:41.825Z,0
2016-10-15T01:57:42.172Z,0
2016-10-15T01:58:41.558Z,0
2016-10-15T01:59:41.592Z,0
2016-10-15T02:00:42.233Z,0
2016-10-15T02:01:41.625Z,0
2016-10-15T02:02:41.651Z,0
2016-10-15T02:03:41.988Z,0
2016-10-15T02:04:41.688Z,0
2016-10-15T02:05:42.026Z,0
2016-10-15T02:06:42.049Z,0
2016-10-15T02:07:42.077Z,0
2016-10-15T02:08:42.421Z,0
2016-10-15T02:09:41.851Z,0
2016-10-15T02:10:42.450Z,0
2016-10-15T02:11:41.845Z,0
2016-10-15T02:12:42.181Z,0
2016-10-15T02:13:42.521Z,0
2016-10-15T02:14:41.912Z,0
2016-10-15T02:15:42.568Z,0
2016-10-15T02:16:42.274Z,0
2016-10-15T02:17:42.297Z,0
2016-10-15T02:18:42.334Z,0
2016-10-15T02:19:42.658Z,0
2016-10-15T02:20:42.691Z,0
2016-10-15T02:21:42.389Z,0
2016-10-15T02:22:42.410Z,0
2016-10-15T02:23:42.431Z,0
2016-10-15T02:24:42.976Z,0
2016-10-15T02:25:42.795Z,0
2016-10-15T02:26:42.501Z,0
2016-10-15T02:27:42.215Z,0
2016-10-15T02:28:42.863Z,0
2016-10-15T02:29:42.247Z,0
2016-10-15T02:30:42.904Z,0
2016-10-15T02:31:42.612Z,0
2016-10-15T02:32:42.632Z,0
2016-10-15T02:33:42.971Z,0
2016-10-15T02:34:42.988Z,0
2016-10-15T02:35:42.386Z,0
2016-10-15T02:36:42.730Z,0
2016-10-15T02:37:42.748Z,0
2016-10-15T02:38:43.084Z,0
2016-10-15T02:39:42.479Z,0
2016-10-15T02:40:42.500Z,0
2016-10-15T02:41:42.831Z,0
2016-10-15T02:42:43.486Z,0
2016-10-15T02:43:43.190Z,0
2016-10-15T02:44:42.904Z,0
2016-10-15T02:45:43.244Z,0
2016-10-15T02:46:42.945Z,0
2016-10-15T02:47:42.968Z,0
2016-10-15T02:48:43.010Z,0
2016-10-15T02:49:43.641Z,0
2016-10-15T02:50:42.713Z,0
2016-10-15T02:51:43.061Z,0
2016-10-15T02:52:42.765Z,0
2016-10-15T02:53:43.411Z,0
2016-10-15T02:54:43.438Z,0
2016-10-15T02:55:43.148Z,0
2016-10-15T02:56:43.173Z,0
2016-10-15T02:57:43.184Z,0
2016-10-15T02:58:42.902Z,0
2016-10-15T02:59:43.547Z,0
2016-10-15T03:00:42.940Z,0
2016-10-15T03:01:43.592Z,0
2016-10-15T03:02:43.304Z,0
2016-10-15T03:03:43.630Z,0
2016-10-15T03:04:43.046Z,0
2016-10-15T03:05:43.678Z,0
2016-10-15T03:06:43.705Z,0
2016-10-15T03:07:43.100Z,0
2016-10-15T03:08:43.747Z,0
2016-10-15T03:09:43.769Z,0
2016-10-15T03:10:43.789Z,0
2016-10-15T03:11:43.835Z,0
2016-10-15T03:12:44.147Z,0
2016-10-15T03:13:43.877Z,0
2016-10-15T03:14:43.250Z,0
2016-10-15T03:15:43.591Z,0
2016-10-15T03:16:43.606Z,0
2016-10-15T03:17:43.629Z,0
2016-10-15T03:18:43.649Z,0
2016-10-15T03:19:44.305Z,0
2016-10-15T03:20:43.699Z,0
2016-10-15T03:21:43.401Z,0
2016-10-15T03:22:43.741Z,0
2016-10-15T03:23:44.396Z,0
2016-10-15T03:24:44.097Z,0
2016-10-15T03:25:43.497Z,0
2016-10-15T03:26:43.826Z,0
2016-10-15T03:27:43.848Z,0
2016-10-15T03:28:44.195Z,0
2016-10-15T03:29:44.528Z,0
2016-10-15T03:30:44.571Z,0
2016-10-15T03:31:43.950Z,0
2016-10-15T03:32:43.646Z,0
2016-10-15T03:33:44.296Z,0
2016-10-15T03:34:44.333Z,0
2016-10-15T03:35:43.715Z,0
2016-10-15T03:36:44.048Z,0
2016-10-15T03:37:43.754Z,0
2016-10-15T03:38:44.087Z,0
2016-10-15T03:39:44.119Z,0
2016-10-15T03:40:44.447Z,0
2016-10-15T03:41:44.157Z,0
2016-10-15T03:42:44.176Z,0
2016-10-15T03:43:44.213Z,0
2016-10-15T03:44:44.556Z,0
2016-10-15T03:45:44.563Z,0
2016-10-15T03:46:44.605Z,0
2016-10-15T03:47:44.309Z,0
2016-10-15T03:48:44.316Z,0
2016-10-15T03:49:44.660Z,0
2016-10-15T03:50:44.355Z,0
2016-10-15T03:51:44.685Z,0
2016-10-15T03:52:44.087Z,0
2016-10-15T03:53:44.415Z,0
2016-10-15T03:54:44.446Z,0
2016-10-15T03:55:45.099Z,0
2016-10-15T03:56:44.801Z,0
2016-10-15T03:57:44.831Z,0
2016-10-15T03:58:44.867Z,0
2016-10-15T03:59:44.556Z,0
2016-10-15T04:00:44.572Z,0
2016-10-15T04:01:44.910Z,0
2016-10-15T04:02:44.927Z,0
2016-10-15T04:03:44.952Z,0
2016-10-15T04:04:45.293Z,0
2016-10-15T04:05:44.681Z,0
2016-10-15T04:06:45.018Z,0
2016-10-15T04:07:44.425Z,0
2016-10-15T04:08:44.444Z,0
2016-10-15T04:09:45.104Z,0
2016-10-15T04:10:45.420Z,0
2016-10-15T04:11:44.812Z,0
2016-10-15T04:12:44.531Z,0
2016-10-15T04:13:45.169Z,0
2016-10-15T04:14:44.566Z,0
2016-10-15T04:15:45.214Z,0
2016-10-15T04:16:45.237Z,0
2016-10-15T04:17:45.261Z,0
2016-10-15T04:18:45.595Z,0
2016-10-15T04:19:44.986Z,0
2016-10-15T04:20:45.016Z,0
2016-10-15T04:21:45.345Z,0
2016-10-15T04:22:45.685Z,0
2016-10-15T04:23:45.079Z,0
2016-10-15T04:24:45.096Z,0
2016-10-15T04:25:45.433Z,0
2016-10-15T04:26:45.135Z,0
2016-10-15T04:27:45.161Z,0
2016-10-15T04:28:45.501Z,0
2016-10-15T04:29:45.521Z,0
2016-10-15T04:30:45.542Z,0
2016-10-15T04:31:45.250Z,0
2016-10-15T04:32:45.601Z,0
2016-10-15T04:33:45.603Z,0
2016-10-15T04:34:45.314Z,0
2016-10-15T04:35:45.343Z,0
2016-10-15T04:36:45.988Z,0
2016-10-15T04:37:45.377Z,0
2016-10-15T04:38:45.086Z,0
2016-10-15T04:39:45.423Z,0
2016-10-15T04:40:45.128Z,0
2016-10-15T04:41:45.464Z,0
2016-10-15T04:42:45.488Z,0
2016-10-15T04:43:45.511Z,0
2016-10-15T04:44:45.536Z,0
2016-10-15T04:45:45.579Z,0
2016-10-15T04:46:45.574Z,0
2016-10-15T04:47:45.909Z,0
2016-10-15T04:48:45.930Z,0
2016-10-15T04:49:45.640Z,0
2016-10-15T04:50:45.975Z,0
2016-10-15T04:51:46.316Z,0
2016-10-15T04:52:45.411Z,0
2016-10-15T04:53:45.728Z,0
2016-10-15T04:54:45.439Z,0
2016-10-15T04:55:45.771Z,0
2016-10-15T04:56:46.423Z,0
2016-10-15T04:57:45.809Z,0
2016-10-15T04:58:45.842Z,0
2016-10-15T04:59:45.539Z,0
2016-10-15T05:00:45.563Z,0
2016-10-15T05:01:45.898Z,0
2016-10-15T05:02:45.924Z,0
2016-10-15T05:03:45.636Z,0
2016-10-15T05:04:45.966Z,0
2016-10-15T05:05:46.619Z,0
2016-10-15T05:06:46.330Z,0
2016-10-15T05:07:46.034Z,0
2016-10-15T05:08:46.368Z,0
2016-10-15T05:09:46.395Z,0
2016-10-15T05:10:46.410Z,0
2016-10-15T05:11:46.118Z,0
2016-10-15T05:12:46.451Z,0
2016-10-15T05:13:46.489Z,0
2016-10-15T05:14:46.182Z,0
2016-10-15T05:15:46.223Z,0
2016-10-15T05:16:45.916Z,0
2016-10-15T05:17:46.878Z,0
2016-10-15T05:18:46.582Z,0
2016-10-15T05:19:46.917Z,0
2016-10-15T05:20:46.629Z,0
2016-10-15T05:21:46.024Z,0
2016-10-15T05:22:46.671Z,4
2016-10-15T05:23:46.376Z,4
2016-10-15T05:24:46.709Z,4
2016-10-15T05:25:46.733Z,0
2016-10-15T05:26:46.438Z,0
2016-10-15T05:27:46.775Z,4
2016-10-15T05:28:46.799Z,4
2016-10-15T05:29:46.824Z,4
2016-10-15T05:30:46.843Z,0
2016-10-15T05:31:47.174Z,4
2016-10-15T05:32:46.585Z,4
2016-10-15T05:33:46.901Z,4
2016-10-15T05:34:46.611Z,8
2016-10-15T05:35:46.633Z,8
2016-10-15T05:36:46.972Z,8
2016-10-15T05:37:46.991Z,8
2016-10-15T05:38:47.017Z,8
2016-10-15T05:39:46.722Z,4
2016-10-15T05:40:46.737Z,8
2016-10-15T05:41:46.775Z,8
2016-10-15T05:42:46.798Z,8
2016-10-15T05:43:46.486Z,8
2016-10-15T05:44:46.849Z,8
2016-10-15T05:45:47.171Z,8
2016-10-15T05:46:46.874Z,12
2016-10-15T05:47:46.891Z,12
2016-10-15T05:48:46.927Z,12
2016-10-15T05:49:47.247Z,12
2016-10-15T05:50:46.966Z,12
2016-10-15T05:51:46.978Z,16
2016-10-15T05:52:47.005Z,16
2016-10-15T05:53:47.656Z,16
2016-10-15T05:54:47.041Z,20
2016-10-15T05:55:47.384Z,20
2016-10-15T05:56:47.463Z,20
2016-10-15T05:57:46.792Z,20
2016-10-15T05:58:47.126Z,16
2016-10-15T05:59:47.148Z,24
2016-10-15T06:00:47.819Z,24
2016-10-15T06:01:46.875Z,24
2016-10-15T06:02:47.845Z,32
2016-10-15T06:03:47.551Z,40
2016-10-15T06:04:46.944Z,44
2016-10-15T06:05:47.294Z,44
2016-10-15T06:06:47.614Z,44
2016-10-15T06:07:47.339Z,48
2016-10-15T06:08:47.351Z,52
2016-10-15T06:09:47.051Z,56
2016-10-15T06:10:47.393Z,60
2016-10-15T06:11:47.427Z,68
2016-10-15T06:12:47.118Z,80
2016-10-15T06:13:47.134Z,84
2016-10-15T06:14:47.477Z,84
2016-10-15T06:15:47.510Z,84
2016-10-15T06:16:47.199Z,84
2016-10-15T06:17:47.538Z,84
2016-10-15T06:18:47.557Z,84
2016-10-15T06:19:48.209Z,84
2016-10-15T06:20:47.918Z,88
2016-10-15T06:21:47.614Z,88
2016-10-15T06:22:47.968Z,88
2016-10-15T06:23:47.981Z,84
2016-10-15T06:24:48.003Z,84
2016-10-15T06:25:48.022Z,88
2016-10-15T06:26:47.750Z,84
2016-10-15T06:27:47.773Z,88
2016-10-15T06:28:47.462Z,88
2016-10-15T06:29:47.814Z,92
2016-10-15T06:30:47.515Z,92
2016-10-15T06:31:47.846Z,96
2016-10-15T06:32:48.180Z,100
2016-10-15T06:33:47.887Z,100
2016-10-15T06:34:47.899Z,100
2016-10-15T06:35:47.927Z,108
2016-10-15T06:36:47.965Z,112
2016-10-15T06:37:47.967Z,116
2016-10-15T06:38:48.637Z,124
2016-10-15T06:39:48.642Z,124
2016-10-15T06:40:47.719Z,132
2016-10-15T06:41:48.380Z,140
2016-10-15T06:42:48.395Z,140
2016-10-15T06:43:48.733Z,136
2016-10-15T06:44:48.121Z,140
2016-10-15T06:45:48.453Z,140
2016-10-15T06:46:48.488Z,144
2016-10-15T06:47:48.812Z,144
2016-10-15T06:48:48.215Z,152
2016-10-15T06:49:48.860Z,152
2016-10-15T06:50:48.269Z,160
2016-10-15T06:51:47.959Z,164
2016-10-15T06:52:48.612Z,164
2016-10-15T06:53:48.323Z,172
2016-10-15T06:54:48.025Z,180
2016-10-15T06:55:48.369Z,188
2016-10-15T06:56:48.389Z,192
2016-10-15T06:57:49.048Z,196
2016-10-15T06:58:48.426Z,200
2016-10-15T06:59:48.467Z,204
2016-10-15T07:00:48.472Z,208
2016-10-15T07:01:48.493Z,216
2016-10-15T07:02:48.827Z,224
2016-10-15T07:03:48.538Z,236
2016-10-15T07:04:48.879Z,260
2016-10-15T07:05:49.208Z,356
2016-10-15T07:06:48.603Z,360
2016-10-15T07:07:48.946Z,360
2016-10-15T07:08:48.643Z,376
2016-10-15T07:09:48.669Z,340
2016-10-15T07:10:48.707Z,364
2016-10-15T07:11:49.028Z,840
2016-10-15T07:12:49.075Z,688
2016-10-15T07:13:49.068Z,420
2016-10-15T07:14:49.097Z,412
2016-10-15T07:15:48.812Z,428
2016-10-15T07:16:48.827Z,436
2016-10-15T07:17:48.851Z,444
2016-10-15T07:18:48.557Z,656
2016-10-15T07:19:49.212Z,672
2016-10-15T07:20:48.916Z,580
2016-10-15T07:21:49.255Z,1016
2016-10-15T07:22:48.959Z,972
2016-10-15T07:23:49.618Z,1868
2016-10-15T07:24:49.005Z,9336
2016-10-15T07:25:48.734Z,18112
2016-10-15T07:26:49.380Z,17504
2016-10-15T07:27:49.582Z,13304
2016-10-15T07:28:48.780Z,24704
2016-10-15T07:29:49.460Z,38624
2016-10-15T07:30:49.469Z,45376
2016-10-15T07:31:48.860Z,43200
2016-10-15T07:32:48.879Z,25760
2016-10-15T07:33:49.223Z,20480
2016-10-15T07:34:49.253Z,20800
2016-10-15T07:35:49.264Z,16864
2016-10-15T07:36:49.610Z,19136
2016-10-15T07:37:49.948Z,19648
2016-10-15T07:38:49.653Z,19168
2016-10-15T07:39:50.000Z,18400
2016-10-15T07:40:49.741Z,25952
2016-10-15T07:41:50.051Z,13312
2016-10-15T07:42:49.446Z,2208
2016-10-15T07:43:49.475Z,5552
2016-10-15T07:44:49.810Z,4964
2016-10-15T07:45:49.837Z,1908
2016-10-15T07:46:49.560Z,2512
2016-10-15T07:47:49.894Z,2664
2016-10-15T07:48:49.594Z,3156
2016-10-15T07:49:49.323Z,1376
2016-10-15T07:50:49.964Z,1492
2016-10-15T07:51:49.677Z,1828
2016-10-15T07:52:50.026Z,2136
2016-10-15T07:53:49.727Z,2032
2016-10-15T07:54:49.752Z,2196
2016-10-15T07:55:50.412Z,1644
2016-10-15T07:56:49.824Z,2728
2016-10-15T07:57:49.830Z,1892
2016-10-15T07:58:50.172Z,2812
2016-10-15T07:59:50.198Z,5296
2016-10-15T08:00:49.920Z,7024
2016-10-15T08:01:50.261Z,21888
2016-10-15T08:02:50.282Z,45664
2016-10-15T08:03:50.306Z,51648
2016-10-15T08:04:50.333Z,48736
2016-10-15T08:05:50.045Z,30048
2016-10-15T08:06:50.710Z,11956
2016-10-15T08:07:50.756Z,2704
2016-10-15T08:08:50.132Z,2496
2016-10-15T08:09:50.474Z,2572
2016-10-15T08:10:50.497Z,2152
2016-10-15T08:11:50.221Z,1748
2016-10-15T08:12:49.925Z,1564
2016-10-15T08:13:50.276Z,1544
2016-10-15T08:14:50.611Z,1540
2016-10-15T08:15:50.321Z,1976
2016-10-15T08:16:50.349Z,4388
2016-10-15T08:17:50.695Z,5468
2016-10-15T08:18:50.724Z,3296
2016-10-15T08:19:50.117Z,2212
2016-10-15T08:20:50.462Z,4048
2016-10-15T08:21:50.813Z,8236
2016-10-15T08:22:50.833Z,4160
2016-10-15T08:23:51.187Z,1816
2016-10-15T08:24:50.258Z,2008
2016-10-15T08:25:50.918Z,4316
2016-10-15T08:26:50.630Z,10444
2016-10-15T08:27:50.657Z,19328
2016-10-15T08:28:50.997Z,20224
2016-10-15T08:29:50.717Z,9968
2016-10-15T08:30:50.740Z,3336
2016-10-15T08:31:50.454Z,1768
2016-10-15T08:32:50.800Z,1576
2016-10-15T08:33:50.829Z,1584
2016-10-15T08:34:50.852Z,1596
2016-10-15T08:35:51.512Z,1576
2016-10-15T08:36:50.615Z,1588
2016-10-15T08:37:51.562Z,1580
2016-10-15T08:38:50.649Z,1612
2016-10-15T08:39:50.992Z,1700
2016-10-15T08:40:51.338Z,3604
2016-10-15T08:41:51.365Z,4248
2016-10-15T08:42:51.398Z,5552
2016-10-15T08:43:50.871Z,8252
2016-10-15T08:44:51.522Z,12588
2016-10-15T08:45:51.166Z,19104
2016-10-15T08:46:50.871Z,13300
2016-10-15T08:47:51.536Z,8996
2016-10-15T08:48:51.257Z,2264
2016-10-15T08:49:51.305Z,1508
2016-10-15T08:50:51.932Z,1352
2016-10-15T08:51:51.021Z,1324
2016-10-15T08:52:51.046Z,1292
2016-10-15T08:53:51.387Z,1332
2016-10-15T08:54:51.124Z,1420
2016-10-15T08:55:51.143Z,1432
2016-10-15T08:56:51.159Z,1344
2016-10-15T08:57:51.829Z,1292
2016-10-15T08:58:51.847Z,1392
2016-10-15T08:59:51.885Z,1792
2016-10-15T09:00:51.907Z,2596
2016-10-15T09:01:51.727Z,1392
2016-10-15T09:02:51.653Z,1340
2016-10-15T09:03:51.989Z,2212
2016-10-15T09:04:51.697Z,1312
2016-10-15T09:05:52.055Z,1256
2016-10-15T09:06:51.757Z,1248
2016-10-15T09:07:52.102Z,1248
2016-10-15T09:08:51.810Z,1256
2016-10-15T09:09:52.149Z,1272
2016-10-15T09:10:52.188Z,1284
2016-10-15T09:11:51.890Z,1268
2016-10-15T09:12:51.918Z,1244
2016-10-15T09:13:52.264Z,1168
2016-10-15T09:14:52.289Z,1196
2016-10-15T09:15:51.680Z,1224
2016-10-15T09:16:52.347Z,1320
2016-10-15T09:17:52.065Z,1380
2016-10-15T09:18:52.079Z,1564
2016-10-15T09:19:51.794Z,1688
2016-10-15T09:20:52.175Z,1408
2016-10-15T09:21:52.231Z,1352
2016-10-15T09:22:52.190Z,2632
2016-10-15T09:23:52.534Z,2240
2016-10-15T09:24:52.569Z,1472
2016-10-15T09:25:52.589Z,1252
2016-10-15T09:26:51.990Z,1224
2016-10-15T09:27:52.641Z,1076
2016-10-15T09:28:52.360Z,1024
2016-10-15T09:29:52.066Z,1028
2016-10-15T09:30:52.731Z,876
2016-10-15T09:31:52.125Z,1052
2016-10-15T09:32:52.463Z,1200
2016-10-15T09:33:52.200Z,1212
2016-10-15T09:34:52.215Z,1104
2016-10-15T09:35:52.550Z,1224
2016-10-15T09:36:52.593Z,1272
2016-10-15T09:37:52.920Z,1236
2016-10-15T09:38:52.964Z,1208
2016-10-15T09:39:52.655Z,1196
2016-10-15T09:40:52.682Z,1184
2016-10-15T09:41:53.352Z,1176
2016-10-15T09:42:52.740Z,1220
2016-10-15T09:43:52.765Z,1180
2016-10-15T09:44:53.109Z,1168
2016-10-15T09:45:52.823Z,1184
2016-10-15T09:46:52.860Z,1152
2016-10-15T09:47:53.193Z,1216
2016-10-15T09:48:52.907Z,1152
2016-10-15T09:49:53.253Z,1152
2016-10-15T09:50:52.953Z,1160
2016-10-15T09:51:53.618Z,1160
2016-10-15T09:52:53.331Z,1156
2016-10-15T09:53:53.373Z,1160
2016-10-15T09:54:53.385Z,1168
2016-10-15T09:55:53.412Z,1184
2016-10-15T09:56:53.125Z,1248
2016-10-15T09:57:53.162Z,1252
2016-10-15T09:58:53.495Z,1340
2016-10-15T09:59:53.517Z,1432
2016-10-15T10:00:53.884Z,1428
2016-10-15T10:01:53.261Z,1292
2016-10-15T10:02:53.610Z,1220
2016-10-15T10:03:53.630Z,1196
2016-10-15T10:04:53.357Z,1180
2016-10-15T10:05:53.063Z,1164
2016-10-15T10:06:53.400Z,1160
2016-10-15T10:07:53.758Z,1152
2016-10-15T10:08:53.769Z,1152
2016-10-15T10:09:53.492Z,1188
2016-10-15T10:10:53.509Z,1236
2016-10-15T10:11:53.877Z,1128
2016-10-15T10:12:53.570Z,1144
2016-10-15T10:13:53.280Z,1148
2016-10-15T10:14:53.616Z,1124
2016-10-15T10:15:53.646Z,1136
2016-10-15T10:16:54.331Z,1128
2016-10-15T10:17:53.702Z,1196
2016-10-15T10:18:54.045Z,1204
2016-10-15T10:19:53.756Z,1152
2016-10-15T10:20:53.820Z,1136
2016-10-15T10:21:54.444Z,1144
2016-10-15T10:22:54.148Z,1148
2016-10-15T10:23:54.182Z,1192
2016-10-15T10:24:53.896Z,1084
2016-10-15T10:25:53.920Z,1100
2016-10-15T10:26:53.646Z,1156
2016-10-15T10:27:54.610Z,1168
2016-10-15T10:28:53.706Z,1196
2016-10-15T10:29:54.048Z,1156
2016-10-15T10:30:53.744Z,1128
2016-10-15T10:31:54.092Z,712
2016-10-15T10:32:54.434Z,676
2016-10-15T10:33:54.148Z,1008
2016-10-15T10:34:54.172Z,1576
2016-10-15T10:35:54.210Z,1460
2016-10-15T10:36:54.574Z,1512
2016-10-15T10:37:53.946Z,1284
2016-10-15T10:38:54.277Z,1172
2016-10-15T10:39:54.322Z,1200
2016-10-15T10:40:54.333Z,1228
2016-10-15T10:41:54.679Z,1176
2016-10-15T10:42:54.413Z,1152
2016-10-15T10:43:54.428Z,1184
2016-10-15T10:44:54.766Z,1120
2016-10-15T10:45:54.471Z,1128
2016-10-15T10:46:54.502Z,1104
2016-10-15T10:47:54.848Z,1092
2016-10-15T10:48:55.188Z,1092
2016-10-15T10:49:54.589Z,1084
2016-10-15T10:50:54.928Z,1080
2016-10-15T10:51:54.640Z,1044
2016-10-15T10:52:55.295Z,1096
2016-10-15T10:53:55.028Z,1064
2016-10-15T10:54:55.038Z,980
2016-10-15T10:55:55.076Z,960
2016-10-15T10:56:54.483Z,988
2016-10-15T10:57:55.144Z,1008
2016-10-15T10:58:54.518Z,968
2016-10-15T10:59:55.170Z,944
2016-10-15T11:00:54.891Z,952
2016-10-15T11:01:54.934Z,964
2016-10-15T11:02:54.947Z,972
2016-10-15T11:03:55.607Z,972
2016-10-15T11:04:55.008Z,784
2016-10-15T11:05:55.660Z,940
2016-10-15T11:06:55.062Z,952
2016-10-15T11:07:54.766Z,948
2016-10-15T11:08:54.802Z,940
2016-10-15T11:09:54.824Z,916
2016-10-15T11:10:55.482Z,336
2016-10-15T11:11:55.191Z,416
2016-10-15T11:12:55.223Z,612
2016-10-15T11:13:55.259Z,292
2016-10-15T11:14:55.907Z,960
2016-10-15T11:15:55.298Z,924
2016-10-15T11:16:55.336Z,908
2016-10-15T11:17:55.360Z,892
2016-10-15T11:18:55.073Z,904
2016-10-15T11:19:55.729Z,908
2016-10-15T11:20:55.132Z,904
2016-10-15T11:21:56.102Z,892
2016-10-15T11:22:55.814Z,900
2016-10-15T11:23:55.529Z,900
2016-10-15T11:24:55.552Z,888
2016-10-15T11:25:55.269Z,888
2016-10-15T11:26:55.951Z,900
2016-10-15T11:27:56.268Z,216
2016-10-15T11:28:55.983Z,284
2016-10-15T11:29:55.691Z,800
2016-10-15T11:30:55.729Z,800
2016-10-15T11:31:55.750Z,904
2016-10-15T11:32:56.093Z,844
2016-10-15T11:33:55.493Z,840
2016-10-15T11:34:56.149Z,900
2016-10-15T11:35:55.853Z,908
2016-10-15T11:36:56.214Z,912
2016-10-15T11:37:56.227Z,872
2016-10-15T11:38:56.582Z,904
2016-10-15T11:39:55.659Z,872
2016-10-15T11:40:55.998Z,936
2016-10-15T11:41:56.021Z,920
2016-10-15T11:42:56.061Z,836
2016-10-15T11:43:56.075Z,804
2016-10-15T11:44:56.116Z,832
2016-10-15T11:45:56.134Z,244
2016-10-15T11:46:55.846Z,288
2016-10-15T11:47:55.881Z,788
2016-10-15T11:48:56.215Z,416
2016-10-15T11:49:56.874Z,272
2016-10-15T11:50:55.965Z,836
2016-10-15T11:51:56.611Z,908
2016-10-15T11:52:56.659Z,928
2016-10-15T11:53:56.352Z,932
2016-10-15T11:54:56.388Z,920
2016-10-15T11:55:57.039Z,936
2016-10-15T11:56:56.749Z,920
2016-10-15T11:57:56.777Z,924
2016-10-15T11:58:56.201Z,896
2016-10-15T11:59:56.527Z,704
2016-10-15T12:00:57.214Z,728
2016-10-15T12:01:56.894Z,500
2016-10-15T12:02:56.673Z,424
2016-10-15T12:03:56.948Z,408
2016-10-15T12:04:56.973Z,308
2016-10-15T12:05:57.050Z,268
2016-10-15T12:06:56.711Z,252
2016-10-15T12:07:56.741Z,244
2016-10-15T12:08:57.398Z,228
2016-10-15T12:09:56.795Z,216
2016-10-15T12:10:56.841Z,200
2016-10-15T12:11:57.172Z,184
2016-10-15T12:12:57.192Z,164
2016-10-15T12:13:56.609Z,148
2016-10-15T12:14:56.934Z,136
2016-10-15T12:15:57.283Z,128
2016-10-15T12:16:57.295Z,120
2016-10-15T12:17:56.700Z,116
2016-10-15T12:18:57.036Z,112
2016-10-15T12:19:57.070Z,116
2016-10-15T12:20:57.094Z,116
2016-10-15T12:21:57.514Z,108
2016-10-15T12:22:57.470Z,104
2016-10-15T12:23:57.524Z,108
2016-10-15T12:24:57.516Z,108
2016-10-15T12:25:57.548Z,112
2016-10-15T12:26:57.256Z,108
2016-10-15T12:27:57.609Z,112
2016-10-15T12:28:57.310Z,116
2016-10-15T12:29:57.379Z,124
2016-10-15T12:30:57.369Z,128
2016-10-15T12:31:57.712Z,136
2016-10-15T12:32:57.736Z,144
2016-10-15T12:33:58.078Z,148
2016-10-15T12:34:57.471Z,152
2016-10-15T12:35:57.495Z,152
2016-10-15T12:36:57.843Z,152
2016-10-15T12:37:57.254Z,152
2016-10-15T12:38:57.586Z,152
2016-10-15T12:39:57.605Z,144
2016-10-15T12:40:57.633Z,140
2016-10-15T12:41:57.660Z,128
2016-10-15T12:42:57.999Z,120
2016-10-15T12:43:57.723Z,120
2016-10-15T12:44:57.421Z,108
2016-10-15T12:45:57.763Z,104
2016-10-15T12:46:58.102Z,104
2016-10-15T12:47:57.814Z,104
2016-10-15T12:48:57.533Z,100
2016-10-15T12:49:57.873Z,104
2016-10-15T12:50:57.897Z,100
2016-10-15T12:51:57.611Z,100
2016-10-15T12:52:57.949Z,104
2016-10-15T12:53:57.972Z,100
2016-10-15T12:54:57.702Z,104
2016-10-15T12:55:58.339Z,108
2016-10-15T12:56:57.736Z,116
2016-10-15T12:57:57.760Z,116
2016-10-15T12:58:58.106Z,124
2016-10-15T12:59:58.139Z,132
2016-10-15T13:00:58.159Z,148
2016-10-15T13:01:58.183Z,168
2016-10-15T13:02:58.216Z,256
2016-10-15T13:03:58.563Z,216
2016-10-15T13:04:58.575Z,212
2016-10-15T13:05:58.292Z,196
2016-10-15T13:06:58.624Z,204
2016-10-15T13:07:58.344Z,216
2016-10-15T13:08:58.046Z,212
2016-10-15T13:09:59.025Z,212
2016-10-15T13:10:58.731Z,200
2016-10-15T13:11:59.073Z,192
2016-10-15T13:12:58.462Z,188
2016-10-15T13:13:58.494Z,188
2016-10-15T13:14:58.834Z,184
2016-10-15T13:15:58.859Z,176
2016-10-15T13:16:58.910Z,184
2016-10-15T13:17:58.603Z,192
2016-10-15T13:18:58.306Z,188
2016-10-15T13:19:58.649Z,180
2016-10-15T13:20:58.671Z,176
2016-10-15T13:21:58.702Z,172
2016-10-15T13:22:59.042Z,168
2016-10-15T13:23:58.435Z,156
2016-10-15T13:24:58.781Z,156
2016-10-15T13:25:59.143Z,152
2016-10-15T13:26:58.511Z,152
2016-10-15T13:27:59.505Z,148
2016-10-15T13:28:58.570Z,148
2016-10-15T13:29:59.226Z,148
2016-10-15T13:30:58.936Z,152
2016-10-15T13:31:58.958Z,152
2016-10-15T13:32:59.319Z,148
2016-10-15T13:33:59.320Z,148
2016-10-15T13:34:59.033Z,144
2016-10-15T13:35:59.374Z,140
2016-10-15T13:36:59.086Z,132
2016-10-15T13:37:58.792Z,128
2016-10-15T13:38:59.140Z,120
2016-10-15T13:39:59.164Z,112
2016-10-15T13:40:59.818Z,100
2016-10-15T13:41:58.908Z,88
2016-10-15T13:42:59.239Z,80
2016-10-15T13:43:59.589Z,72
2016-10-15T13:44:58.974Z,64
2016-10-15T13:45:59.634Z,60
2016-10-15T13:46:59.026Z,56
2016-10-15T13:47:59.366Z,56
2016-10-15T13:48:59.392Z,52
2016-10-15T13:49:59.758Z,48
2016-10-15T13:50:59.760Z,48
2016-10-15T13:51:59.789Z,48
2016-10-15T13:52:59.181Z,48
2016-10-15T13:54:14.411Z,44
2016-10-15T13:54:59.550Z,44
2016-10-15T13:55:59.894Z,44
2016-10-15T13:57:00.230Z,44
2016-10-15T13:57:59.962Z,48
2016-10-15T13:59:00.287Z,44
2016-10-15T13:59:59.992Z,48
2016-10-15T14:01:00.016Z,44
2016-10-15T14:01:59.747Z,44
2016-10-15T14:03:00.068Z,44
2016-10-15T14:03:59.463Z,44
2016-10-15T14:04:59.506Z,40